sensor_id;sensor_type;location;lat;lon;timestamp;temperature;humidity
8953;DHT22;4511;50.890;8.054;2023-10-13T00:00:41;16.40;99.90
8953;DHT22;4511;50.890;8.054;2023-10-13T00:03:08;16.40;99.90
8953;DHT22;4511;50.890;8.054;2023-10-13T00:05:41;16.40;99.90
8953;DHT22;4511;50.890;8.054;2023-10-13T00:08:09;16.40;99.90
8953;DHT22;4511;50.890;8.054;2023-10-13T00:10:36;16.40;99.90
8953;DHT22;4511;50.890;8.054;2023-10-13T00:13:03;16.40;99.90
8953;DHT22;4511;50.890;8.054;2023-10-13T00:15:40;16.40;99.90
8953;DHT22;4511;50.890;8.054;2023-10-13T00:18:12;16.50;99.90
8953;DHT22;4511;50.890;8.054;2023-10-13T00:20:40;16.40;99.90
8953;DHT22;4511;50.890;8.054;2023-10-13T00:23:13;16.40;99.90
8953;DHT22;4511;50.890;8.054;2023-10-13T00:25:40;16.30;99.90
8953;DHT22;4511;50.890;8.054;2023-10-13T00:28:15;16.30;99.90
8953;DHT22;4511;50.890;8.054;2023-10-13T00:30:50;16.40;99.90
8953;DHT22;4511;50.890;8.054;2023-10-13T00:33:18;16.30;99.90
8953;DHT22;4511;50.890;8.054;2023-10-13T00:35:45;16.30;99.90
8953;DHT22;4511;50.890;8.054;2023-10-13T00:38:14;16.40;99.90
8953;DHT22;4511;50.890;8.054;2023-10-13T00:40:43;16.40;99.90
8953;DHT22;4511;50.890;8.054;2023-10-13T00:43:17;16.40;99.90
8953;DHT22;4511;50.890;8.054;2023-10-13T00:46:02;16.40;99.90
8953;DHT22;4511;50.890;8.054;2023-10-13T00:48:34;16.40;99.90
8953;DHT22;4511;50.890;8.054;2023-10-13T00:51:08;16.40;99.90
8953;DHT22;4511;50.890;8.054;2023-10-13T00:53:43;16.40;99.90
8953;DHT22;4511;50.890;8.054;2023-10-13T00:56:13;16.40;99.90
8953;DHT22;4511;50.890;8.054;2023-10-13T00:58:52;16.40;99.90
8953;DHT22;4511;50.890;8.054;2023-10-13T01:01:20;16.40;99.90
8953;DHT22;4511;50.890;8.054;2023-10-13T01:03:49;16.40;99.90
8953;DHT22;4511;50.890;8.054;2023-10-13T01:06:21;16.40;99.90
8953;DHT22;4511;50.890;8.054;2023-10-13T01:08:57;16.40;99.90
8953;DHT22;4511;50.890;8.054;2023-10-13T01:11:24;16.40;99.90
8953;DHT22;4511;50.890;8.054;2023-10-13T01:13:52;16.40;99.90
8953;DHT22;4511;50.890;8.054;2023-10-13T01:16:20;16.40;99.90
8953;DHT22;4511;50.890;8.054;2023-10-13T01:18:46;16.40;99.90
8953;DHT22;4511;50.890;8.054;2023-10-13T01:21:17;16.50;99.90
8953;DHT22;4511;50.890;8.054;2023-10-13T01:23:47;16.40;99.90
8953;DHT22;4511;50.890;8.054;2023-10-13T01:26:16;16.50;99.90
8953;DHT22;4511;50.890;8.054;2023-10-13T01:28:47;16.40;99.90
8953;DHT22;4511;50.890;8.054;2023-10-13T01:31:14;16.50;99.90
8953;DHT22;4511;50.890;8.054;2023-10-13T01:33:50;16.40;99.90
8953;DHT22;4511;50.890;8.054;2023-10-13T01:36:20;16.50;99.90
8953;DHT22;4511;50.890;8.054;2023-10-13T01:38:48;16.50;99.90
8953;DHT22;4511;50.890;8.054;2023-10-13T01:41:15;16.50;99.90
8953;DHT22;4511;50.890;8.054;2023-10-13T01:43:42;16.50;99.90
8953;DHT22;4511;50.890;8.054;2023-10-13T01:46:09;16.50;99.90
8953;DHT22;4511;50.890;8.054;2023-10-13T01:48:39;16.50;99.90
8953;DHT22;4511;50.890;8.054;2023-10-13T01:51:05;16.50;99.90
8953;DHT22;4511;50.890;8.054;2023-10-13T01:53:36;16.50;99.90
8953;DHT22;4511;50.890;8.054;2023-10-13T01:56:04;16.50;99.90
8953;DHT22;4511;50.890;8.054;2023-10-13T01:58:36;16.50;99.90
8953;DHT22;4511;50.890;8.054;2023-10-13T02:01:02;16.60;99.90
8953;DHT22;4511;50.890;8.054;2023-10-13T02:03:30;16.50;99.90
8953;DHT22;4511;50.890;8.054;2023-10-13T02:05:55;16.60;99.90
8953;DHT22;4511;50.890;8.054;2023-10-13T02:08:30;16.50;99.90
8953;DHT22;4511;50.890;8.054;2023-10-13T02:10:56;16.60;99.90
8953;DHT22;4511;50.890;8.054;2023-10-13T02:13:25;16.50;99.90
8953;DHT22;4511;50.890;8.054;2023-10-13T02:15:53;16.50;99.90
8953;DHT22;4511;50.890;8.054;2023-10-13T02:18:22;16.50;99.90
8953;DHT22;4511;50.890;8.054;2023-10-13T02:20:52;16.60;99.90
8953;DHT22;4511;50.890;8.054;2023-10-13T02:23:22;16.50;99.90
8953;DHT22;4511;50.890;8.054;2023-10-13T02:25:48;16.60;99.90
8953;DHT22;4511;50.890;8.054;2023-10-13T02:28:19;16.50;99.90
8953;DHT22;4511;50.890;8.054;2023-10-13T02:30:48;16.60;99.90
8953;DHT22;4511;50.890;8.054;2023-10-13T02:33:16;16.50;99.90
8953;DHT22;4511;50.890;8.054;2023-10-13T02:35:47;16.50;99.90
8953;DHT22;4511;50.890;8.054;2023-10-13T02:38:19;16.50;99.90
8953;DHT22;4511;50.890;8.054;2023-10-13T02:40:53;16.50;99.90
8953;DHT22;4511;50.890;8.054;2023-10-13T02:43:21;16.60;99.90
8953;DHT22;4511;50.890;8.054;2023-10-13T02:45:58;16.50;99.90
8953;DHT22;4511;50.890;8.054;2023-10-13T02:48:25;16.50;99.90
8953;DHT22;4511;50.890;8.054;2023-10-13T02:50:55;16.60;99.90
8953;DHT22;4511;50.890;8.054;2023-10-13T02:53:22;16.50;99.90
8953;DHT22;4511;50.890;8.054;2023-10-13T02:55:50;16.60;99.90
8953;DHT22;4511;50.890;8.054;2023-10-13T02:58:17;16.50;99.90
8953;DHT22;4511;50.890;8.054;2023-10-13T03:00:43;16.50;99.90
8953;DHT22;4511;50.890;8.054;2023-10-13T03:03:12;16.60;99.90
8953;DHT22;4511;50.890;8.054;2023-10-13T03:05:40;16.60;99.90
8953;DHT22;4511;50.890;8.054;2023-10-13T03:08:08;16.60;99.90
8953;DHT22;4511;50.890;8.054;2023-10-13T03:10:36;16.60;99.90
8953;DHT22;4511;50.890;8.054;2023-10-13T03:13:11;16.60;99.90
8953;DHT22;4511;50.890;8.054;2023-10-13T03:15:36;16.60;99.90
8953;DHT22;4511;50.890;8.054;2023-10-13T03:18:03;16.60;99.90
8953;DHT22;4511;50.890;8.054;2023-10-13T03:20:31;16.60;99.90
8953;DHT22;4511;50.890;8.054;2023-10-13T03:22:58;16.60;99.90
8953;DHT22;4511;50.890;8.054;2023-10-13T03:25:24;16.60;99.90
8953;DHT22;4511;50.890;8.054;2023-10-13T03:27:56;16.60;99.90
8953;DHT22;4511;50.890;8.054;2023-10-13T03:30:30;16.60;99.90
8953;DHT22;4511;50.890;8.054;2023-10-13T03:33:05;16.60;99.90
8953;DHT22;4511;50.890;8.054;2023-10-13T03:35:38;16.60;99.90
8953;DHT22;4511;50.890;8.054;2023-10-13T03:38:07;16.60;99.90
8953;DHT22;4511;50.890;8.054;2023-10-13T03:40:51;16.60;99.90
8953;DHT22;4511;50.890;8.054;2023-10-13T03:43:32;16.60;99.90
8953;DHT22;4511;50.890;8.054;2023-10-13T03:46:00;16.60;99.90
8953;DHT22;4511;50.890;8.054;2023-10-13T03:48:34;16.70;99.90
8953;DHT22;4511;50.890;8.054;2023-10-13T03:51:18;16.70;99.90
8953;DHT22;4511;50.890;8.054;2023-10-13T03:53:45;16.60;99.90
8953;DHT22;4511;50.890;8.054;2023-10-13T03:56:19;16.70;99.90
8953;DHT22;4511;50.890;8.054;2023-10-13T03:58:54;16.70;99.90
8953;DHT22;4511;50.890;8.054;2023-10-13T04:01:24;16.70;99.90
8953;DHT22;4511;50.890;8.054;2023-10-13T04:03:58;16.70;99.90
8953;DHT22;4511;50.890;8.054;2023-10-13T04:06:31;16.70;99.90
8953;DHT22;4511;50.890;8.054;2023-10-13T04:09:15;16.70;99.90
8953;DHT22;4511;50.890;8.054;2023-10-13T04:11:56;16.70;99.90
8953;DHT22;4511;50.890;8.054;2023-10-13T04:14:41;16.70;99.90
8953;DHT22;4511;50.890;8.054;2023-10-13T04:17:26;16.70;99.90
8953;DHT22;4511;50.890;8.054;2023-10-13T04:19:54;16.80;99.90
8953;DHT22;4511;50.890;8.054;2023-10-13T04:22:37;16.80;99.90
8953;DHT22;4511;50.890;8.054;2023-10-13T04:25:19;16.80;99.90
8953;DHT22;4511;50.890;8.054;2023-10-13T04:28:03;16.80;99.90
8953;DHT22;4511;50.890;8.054;2023-10-13T04:30:59;16.80;99.90
8953;DHT22;4511;50.890;8.054;2023-10-13T04:33:37;16.80;99.90
8953;DHT22;4511;50.890;8.054;2023-10-13T04:36:17;16.90;99.90
8953;DHT22;4511;50.890;8.054;2023-10-13T04:38:50;16.90;99.90
8953;DHT22;4511;50.890;8.054;2023-10-13T04:41:26;16.90;99.90
8953;DHT22;4511;50.890;8.054;2023-10-13T04:43:57;16.90;99.90
8953;DHT22;4511;50.890;8.054;2023-10-13T04:46:31;16.90;99.90
8953;DHT22;4511;50.890;8.054;2023-10-13T04:49:20;16.90;99.90
8953;DHT22;4511;50.890;8.054;2023-10-13T04:51:54;16.90;99.90
8953;DHT22;4511;50.890;8.054;2023-10-13T04:54:31;17.00;99.90
8953;DHT22;4511;50.890;8.054;2023-10-13T04:57:10;17.00;99.90
8953;DHT22;4511;50.890;8.054;2023-10-13T04:59:51;17.00;99.90
8953;DHT22;4511;50.890;8.054;2023-10-13T05:02:36;17.00;99.90
8953;DHT22;4511;50.890;8.054;2023-10-13T05:05:43;17.00;99.90
8953;DHT22;4511;50.890;8.054;2023-10-13T05:08:39;17.00;99.90
8953;DHT22;4511;50.890;8.054;2023-10-13T05:11:21;17.00;99.90
8953;DHT22;4511;50.890;8.054;2023-10-13T05:14:05;17.10;99.90
8953;DHT22;4511;50.890;8.054;2023-10-13T05:16:49;17.00;99.90
8953;DHT22;4511;50.890;8.054;2023-10-13T05:19:33;17.10;99.90
8953;DHT22;4511;50.890;8.054;2023-10-13T05:22:17;17.00;99.90
8953;DHT22;4511;50.890;8.054;2023-10-13T05:25:01;17.00;99.90
8953;DHT22;4511;50.890;8.054;2023-10-13T05:27:47;17.00;99.90
8953;DHT22;4511;50.890;8.054;2023-10-13T05:30:32;17.10;99.90
8953;DHT22;4511;50.890;8.054;2023-10-13T05:33:16;17.10;99.90
8953;DHT22;4511;50.890;8.054;2023-10-13T05:36:00;17.10;99.90
8953;DHT22;4511;50.890;8.054;2023-10-13T05:38:53;17.10;99.90
8953;DHT22;4511;50.890;8.054;2023-10-13T05:41:37;17.10;99.90
8953;DHT22;4511;50.890;8.054;2023-10-13T05:44:23;17.10;99.90
8953;DHT22;4511;50.890;8.054;2023-10-13T05:47:13;17.10;99.90
8953;DHT22;4511;50.890;8.054;2023-10-13T05:49:57;17.10;99.90
8953;DHT22;4511;50.890;8.054;2023-10-13T05:52:30;17.10;99.90
8953;DHT22;4511;50.890;8.054;2023-10-13T05:55:15;17.10;99.90
8953;DHT22;4511;50.890;8.054;2023-10-13T05:57:59;17.10;99.90
8953;DHT22;4511;50.890;8.054;2023-10-13T06:00:44;17.10;99.90
8953;DHT22;4511;50.890;8.054;2023-10-13T06:03:29;17.10;99.90
8953;DHT22;4511;50.890;8.054;2023-10-13T06:06:13;17.10;99.90
8953;DHT22;4511;50.890;8.054;2023-10-13T06:08:57;17.10;99.90
8953;DHT22;4511;50.890;8.054;2023-10-13T06:11:41;17.20;99.90
8953;DHT22;4511;50.890;8.054;2023-10-13T06:14:25;17.10;99.90
8953;DHT22;4511;50.890;8.054;2023-10-13T06:17:11;17.20;99.90
8953;DHT22;4511;50.890;8.054;2023-10-13T06:19:55;17.20;99.90
8953;DHT22;4511;50.890;8.054;2023-10-13T06:22:39;17.20;99.90
8953;DHT22;4511;50.890;8.054;2023-10-13T06:25:23;17.20;99.90
8953;DHT22;4511;50.890;8.054;2023-10-13T06:28:07;17.20;99.90
8953;DHT22;4511;50.890;8.054;2023-10-13T06:30:56;17.30;99.90
8953;DHT22;4511;50.890;8.054;2023-10-13T06:33:24;17.20;99.90
8953;DHT22;4511;50.890;8.054;2023-10-13T06:35:55;17.30;99.90
8953;DHT22;4511;50.890;8.054;2023-10-13T06:38:22;17.30;99.90
8953;DHT22;4511;50.890;8.054;2023-10-13T06:40:49;17.30;99.90
8953;DHT22;4511;50.890;8.054;2023-10-13T06:43:18;17.30;99.90
8953;DHT22;4511;50.890;8.054;2023-10-13T06:45:48;17.30;99.90
8953;DHT22;4511;50.890;8.054;2023-10-13T06:48:24;17.30;99.90
8953;DHT22;4511;50.890;8.054;2023-10-13T06:50:51;17.30;99.90
8953;DHT22;4511;50.890;8.054;2023-10-13T06:53:18;17.40;99.90
8953;DHT22;4511;50.890;8.054;2023-10-13T06:55:45;17.40;99.90
8953;DHT22;4511;50.890;8.054;2023-10-13T06:58:14;17.40;99.90
8953;DHT22;4511;50.890;8.054;2023-10-13T07:00:43;17.40;99.90
8953;DHT22;4511;50.890;8.054;2023-10-13T07:03:18;17.40;99.90
8953;DHT22;4511;50.890;8.054;2023-10-13T07:05:46;17.50;99.90
8953;DHT22;4511;50.890;8.054;2023-10-13T07:08:15;17.50;99.90
8953;DHT22;4511;50.890;8.054;2023-10-13T07:10:49;17.50;99.90
8953;DHT22;4511;50.890;8.054;2023-10-13T07:13:17;17.50;99.90
8953;DHT22;4511;50.890;8.054;2023-10-13T07:15:45;17.50;99.90
8953;DHT22;4511;50.890;8.054;2023-10-13T07:18:12;17.50;99.90
8953;DHT22;4511;50.890;8.054;2023-10-13T07:20:40;17.50;99.90
8953;DHT22;4511;50.890;8.054;2023-10-13T07:23:12;17.50;99.90
8953;DHT22;4511;50.890;8.054;2023-10-13T07:25:50;17.50;99.90
8953;DHT22;4511;50.890;8.054;2023-10-13T07:28:17;17.50;99.90
8953;DHT22;4511;50.890;8.054;2023-10-13T07:30:44;17.60;99.90
8953;DHT22;4511;50.890;8.054;2023-10-13T07:33:34;17.60;99.90
8953;DHT22;4511;50.890;8.054;2023-10-13T07:36:03;17.60;99.90
8953;DHT22;4511;50.890;8.054;2023-10-13T07:38:38;17.60;99.90
8953;DHT22;4511;50.890;8.054;2023-10-13T07:41:07;17.60;99.90
8953;DHT22;4511;50.890;8.054;2023-10-13T07:43:34;17.60;99.90
8953;DHT22;4511;50.890;8.054;2023-10-13T07:46:02;17.70;99.90
8953;DHT22;4511;50.890;8.054;2023-10-13T07:48:35;17.70;99.90
8953;DHT22;4511;50.890;8.054;2023-10-13T07:51:04;17.70;99.90
8953;DHT22;4511;50.890;8.054;2023-10-13T07:53:31;17.70;99.90
8953;DHT22;4511;50.890;8.054;2023-10-13T07:56:04;17.80;99.90
8953;DHT22;4511;50.890;8.054;2023-10-13T07:58:34;17.80;99.90
8953;DHT22;4511;50.890;8.054;2023-10-13T08:01:01;17.80;99.90
8953;DHT22;4511;50.890;8.054;2023-10-13T08:03:34;17.80;99.90
8953;DHT22;4511;50.890;8.054;2023-10-13T08:06:11;17.80;99.90
8953;DHT22;4511;50.890;8.054;2023-10-13T08:08:51;17.90;99.90
8953;DHT22;4511;50.890;8.054;2023-10-13T08:11:22;17.90;99.90
8953;DHT22;4511;50.890;8.054;2023-10-13T08:13:57;17.90;99.90
8953;DHT22;4511;50.890;8.054;2023-10-13T08:16:26;18.00;99.90
8953;DHT22;4511;50.890;8.054;2023-10-13T08:19:11;18.00;99.90
8953;DHT22;4511;50.890;8.054;2023-10-13T08:21:40;18.10;99.90
8953;DHT22;4511;50.890;8.054;2023-10-13T08:24:15;18.10;99.90
8953;DHT22;4511;50.890;8.054;2023-10-13T08:26:43;18.10;99.90
8953;DHT22;4511;50.890;8.054;2023-10-13T08:29:39;18.10;99.90
8953;DHT22;4511;50.890;8.054;2023-10-13T08:32:23;18.10;99.90
8953;DHT22;4511;50.890;8.054;2023-10-13T08:35:02;18.20;99.90
8953;DHT22;4511;50.890;8.054;2023-10-13T08:37:49;18.10;99.90
8953;DHT22;4511;50.890;8.054;2023-10-13T08:40:43;18.10;99.90
8953;DHT22;4511;50.890;8.054;2023-10-13T08:43:33;18.10;99.90
8953;DHT22;4511;50.890;8.054;2023-10-13T08:46:09;18.20;99.90
8953;DHT22;4511;50.890;8.054;2023-10-13T08:48:52;18.20;99.90
8953;DHT22;4511;50.890;8.054;2023-10-13T08:51:35;18.30;99.90
8953;DHT22;4511;50.890;8.054;2023-10-13T08:54:12;18.30;99.90
8953;DHT22;4511;50.890;8.054;2023-10-13T08:56:47;18.30;99.90
8953;DHT22;4511;50.890;8.054;2023-10-13T08:59:21;18.30;99.90
8953;DHT22;4511;50.890;8.054;2023-10-13T09:02:12;18.40;99.90
8953;DHT22;4511;50.890;8.054;2023-10-13T09:04:42;18.40;99.90
8953;DHT22;4511;50.890;8.054;2023-10-13T09:07:11;18.40;99.90
8953;DHT22;4511;50.890;8.054;2023-10-13T09:09:47;18.50;99.90
8953;DHT22;4511;50.890;8.054;2023-10-13T09:12:37;18.50;99.90
8953;DHT22;4511;50.890;8.054;2023-10-13T09:15:09;18.50;99.90
8953;DHT22;4511;50.890;8.054;2023-10-13T09:17:50;18.60;99.90
8953;DHT22;4511;50.890;8.054;2023-10-13T09:20:27;18.50;99.90
8953;DHT22;4511;50.890;8.054;2023-10-13T09:22:58;18.60;99.90
8953;DHT22;4511;50.890;8.054;2023-10-13T09:25:34;18.60;99.90
8953;DHT22;4511;50.890;8.054;2023-10-13T09:28:03;18.70;99.90
8953;DHT22;4511;50.890;8.054;2023-10-13T09:30:44;18.70;99.90
8953;DHT22;4511;50.890;8.054;2023-10-13T09:33:10;18.80;99.90
8953;DHT22;4511;50.890;8.054;2023-10-13T09:35:43;18.80;99.90
8953;DHT22;4511;50.890;8.054;2023-10-13T09:38:14;18.80;99.90
8953;DHT22;4511;50.890;8.054;2023-10-13T09:40:42;18.80;99.90
8953;DHT22;4511;50.890;8.054;2023-10-13T09:43:12;18.90;99.90
8953;DHT22;4511;50.890;8.054;2023-10-13T09:45:46;18.80;99.90
8953;DHT22;4511;50.890;8.054;2023-10-13T09:48:33;18.90;99.90
8953;DHT22;4511;50.890;8.054;2023-10-13T09:51:02;18.90;99.90
8953;DHT22;4511;50.890;8.054;2023-10-13T09:53:31;18.90;99.90
8953;DHT22;4511;50.890;8.054;2023-10-13T09:56:03;18.90;99.90
8953;DHT22;4511;50.890;8.054;2023-10-13T09:58:41;19.00;99.90
8953;DHT22;4511;50.890;8.054;2023-10-13T10:01:17;19.00;99.90
8953;DHT22;4511;50.890;8.054;2023-10-13T10:03:47;19.10;99.90
8953;DHT22;4511;50.890;8.054;2023-10-13T10:06:22;19.00;99.90
8953;DHT22;4511;50.890;8.054;2023-10-13T10:09:04;19.00;99.90
8953;DHT22;4511;50.890;8.054;2023-10-13T10:12:01;19.00;99.90
8953;DHT22;4511;50.890;8.054;2023-10-13T10:14:41;19.00;99.90
8953;DHT22;4511;50.890;8.054;2023-10-13T10:17:13;19.10;99.90
8953;DHT22;4511;50.890;8.054;2023-10-13T10:19:47;19.10;99.90
8953;DHT22;4511;50.890;8.054;2023-10-13T10:22:25;19.10;99.90
8953;DHT22;4511;50.890;8.054;2023-10-13T10:24:56;19.30;99.90
8953;DHT22;4511;50.890;8.054;2023-10-13T10:27:25;19.20;99.90
8953;DHT22;4511;50.890;8.054;2023-10-13T10:29:53;19.30;99.90
8953;DHT22;4511;50.890;8.054;2023-10-13T10:32:31;19.30;99.90
8953;DHT22;4511;50.890;8.054;2023-10-13T10:35:03;19.30;99.90
8953;DHT22;4511;50.890;8.054;2023-10-13T10:37:33;19.30;99.90
8953;DHT22;4511;50.890;8.054;2023-10-13T10:40:01;19.30;99.90
8953;DHT22;4511;50.890;8.054;2023-10-13T10:42:31;19.30;99.90
8953;DHT22;4511;50.890;8.054;2023-10-13T10:44:58;19.40;99.90
8953;DHT22;4511;50.890;8.054;2023-10-13T10:47:32;19.50;99.90
8953;DHT22;4511;50.890;8.054;2023-10-13T10:50:03;19.70;99.90
8953;DHT22;4511;50.890;8.054;2023-10-13T10:52:44;19.90;99.90
8953;DHT22;4511;50.890;8.054;2023-10-13T10:55:12;19.90;99.90
8953;DHT22;4511;50.890;8.054;2023-10-13T10:57:39;19.80;99.90
8953;DHT22;4511;50.890;8.054;2023-10-13T11:00:18;19.80;99.90
8953;DHT22;4511;50.890;8.054;2023-10-13T11:02:54;19.90;99.90
8953;DHT22;4511;50.890;8.054;2023-10-13T11:05:21;19.80;99.90
8953;DHT22;4511;50.890;8.054;2023-10-13T11:07:50;19.90;99.90
8953;DHT22;4511;50.890;8.054;2023-10-13T11:10:17;20.00;99.90
8953;DHT22;4511;50.890;8.054;2023-10-13T11:12:55;20.10;99.90
8953;DHT22;4511;50.890;8.054;2023-10-13T11:15:41;20.20;99.90
8953;DHT22;4511;50.890;8.054;2023-10-13T11:18:11;20.50;99.90
8953;DHT22;4511;50.890;8.054;2023-10-13T11:20:42;20.60;99.90
8953;DHT22;4511;50.890;8.054;2023-10-13T11:23:11;20.60;1.00
8953;DHT22;4511;50.890;8.054;2023-10-13T11:25:38;21.00;99.90
8953;DHT22;4511;50.890;8.054;2023-10-13T11:28:11;21.00;1.00
8953;DHT22;4511;50.890;8.054;2023-10-13T11:30:46;20.90;1.00
8953;DHT22;4511;50.890;8.054;2023-10-13T11:33:17;20.90;1.00
8953;DHT22;4511;50.890;8.054;2023-10-13T11:35:48;20.80;1.00
8953;DHT22;4511;50.890;8.054;2023-10-13T11:38:21;20.80;1.00
8953;DHT22;4511;50.890;8.054;2023-10-13T11:40:52;20.70;1.00
8953;DHT22;4511;50.890;8.054;2023-10-13T11:43:44;20.70;1.00
8953;DHT22;4511;50.890;8.054;2023-10-13T11:46:34;20.70;1.00
8953;DHT22;4511;50.890;8.054;2023-10-13T11:49:20;20.70;1.00
8953;DHT22;4511;50.890;8.054;2023-10-13T11:51:57;20.60;99.90
8953;DHT22;4511;50.890;8.054;2023-10-13T11:54:35;20.60;1.00
8953;DHT22;4511;50.890;8.054;2023-10-13T11:57:07;20.60;99.90
8953;DHT22;4511;50.890;8.054;2023-10-13T11:59:34;20.60;1.00
8953;DHT22;4511;50.890;8.054;2023-10-13T12:02:12;20.50;1.00
8953;DHT22;4511;50.890;8.054;2023-10-13T12:04:58;20.50;1.00
8953;DHT22;4511;50.890;8.054;2023-10-13T12:07:25;20.50;1.00
8953;DHT22;4511;50.890;8.054;2023-10-13T12:10:08;20.50;1.00
8953;DHT22;4511;50.890;8.054;2023-10-13T12:12:42;20.50;1.00
8953;DHT22;4511;50.890;8.054;2023-10-13T12:15:11;20.40;1.00
8953;DHT22;4511;50.890;8.054;2023-10-13T12:17:51;20.50;1.00
8953;DHT22;4511;50.890;8.054;2023-10-13T12:20:19;20.50;1.00
8953;DHT22;4511;50.890;8.054;2023-10-13T12:22:58;20.60;1.00
8953;DHT22;4511;50.890;8.054;2023-10-13T12:25:37;20.60;1.00
8953;DHT22;4511;50.890;8.054;2023-10-13T12:28:21;20.70;99.90
8953;DHT22;4511;50.890;8.054;2023-10-13T12:30:49;20.80;99.90
8953;DHT22;4511;50.890;8.054;2023-10-13T12:33:18;20.70;99.90
8953;DHT22;4511;50.890;8.054;2023-10-13T12:35:58;20.70;99.90
8953;DHT22;4511;50.890;8.054;2023-10-13T12:38:32;20.60;99.90
8953;DHT22;4511;50.890;8.054;2023-10-13T12:41:37;20.60;99.90
8953;DHT22;4511;50.890;8.054;2023-10-13T12:44:21;20.50;99.90
8953;DHT22;4511;50.890;8.054;2023-10-13T12:47:06;20.60;99.90
8953;DHT22;4511;50.890;8.054;2023-10-13T12:49:50;20.60;99.90
8953;DHT22;4511;50.890;8.054;2023-10-13T12:52:35;20.60;99.90
8953;DHT22;4511;50.890;8.054;2023-10-13T12:55:02;20.60;99.90
8953;DHT22;4511;50.890;8.054;2023-10-13T12:57:38;20.60;99.90
8953;DHT22;4511;50.890;8.054;2023-10-13T13:00:12;20.60;40.60
8953;DHT22;4511;50.890;8.054;2023-10-13T13:02:58;20.60;96.30
8953;DHT22;4511;50.890;8.054;2023-10-13T13:05:25;20.60;99.90
8953;DHT22;4511;50.890;8.054;2023-10-13T13:07:57;20.50;10.90
8953;DHT22;4511;50.890;8.054;2023-10-13T13:10:24;20.50;99.90
8953;DHT22;4511;50.890;8.054;2023-10-13T13:13:02;20.40;99.90
8953;DHT22;4511;50.890;8.054;2023-10-13T13:15:29;20.50;99.90
8953;DHT22;4511;50.890;8.054;2023-10-13T13:17:56;20.60;1.00
8953;DHT22;4511;50.890;8.054;2023-10-13T13:20:23;20.60;4.80
8953;DHT22;4511;50.890;8.054;2023-10-13T13:22:54;20.70;1.00
8953;DHT22;4511;50.890;8.054;2023-10-13T13:25:22;20.70;1.00
8953;DHT22;4511;50.890;8.054;2023-10-13T13:27:55;20.90;1.00
8953;DHT22;4511;50.890;8.054;2023-10-13T13:30:23;21.00;1.00
8953;DHT22;4511;50.890;8.054;2023-10-13T13:32:55;21.00;1.00
8953;DHT22;4511;50.890;8.054;2023-10-13T13:35:24;21.00;1.00
8953;DHT22;4511;50.890;8.054;2023-10-13T13:37:58;21.10;1.00
8953;DHT22;4511;50.890;8.054;2023-10-13T13:40:37;21.00;1.00
8953;DHT22;4511;50.890;8.054;2023-10-13T13:43:04;21.00;1.00
8953;DHT22;4511;50.890;8.054;2023-10-13T13:45:32;20.90;1.00
8953;DHT22;4511;50.890;8.054;2023-10-13T13:48:00;20.80;1.00
8953;DHT22;4511;50.890;8.054;2023-10-13T13:50:33;20.80;1.00
8953;DHT22;4511;50.890;8.054;2023-10-13T13:53:05;20.70;1.00
8953;DHT22;4511;50.890;8.054;2023-10-13T13:55:36;20.70;1.00
8953;DHT22;4511;50.890;8.054;2023-10-13T13:58:05;20.60;1.00
8953;DHT22;4511;50.890;8.054;2023-10-13T14:00:33;20.60;1.00
8953;DHT22;4511;50.890;8.054;2023-10-13T14:03:04;20.50;1.00
8953;DHT22;4511;50.890;8.054;2023-10-13T14:05:31;20.50;1.00
8953;DHT22;4511;50.890;8.054;2023-10-13T14:07:57;20.40;1.00
8953;DHT22;4511;50.890;8.054;2023-10-13T14:10:24;20.40;1.00
8953;DHT22;4511;50.890;8.054;2023-10-13T14:13:01;20.30;1.00
8953;DHT22;4511;50.890;8.054;2023-10-13T14:15:33;20.30;1.00
8953;DHT22;4511;50.890;8.054;2023-10-13T14:18:06;20.20;1.00
8953;DHT22;4511;50.890;8.054;2023-10-13T14:20:40;20.20;1.00
8953;DHT22;4511;50.890;8.054;2023-10-13T14:23:08;20.20;1.00
8953;DHT22;4511;50.890;8.054;2023-10-13T14:25:37;20.20;1.00
8953;DHT22;4511;50.890;8.054;2023-10-13T14:28:06;20.20;1.00
8953;DHT22;4511;50.890;8.054;2023-10-13T14:30:33;20.20;1.00
8953;DHT22;4511;50.890;8.054;2023-10-13T14:33:00;20.20;1.00
8953;DHT22;4511;50.890;8.054;2023-10-13T14:35:27;20.10;1.00
8953;DHT22;4511;50.890;8.054;2023-10-13T14:37:54;20.10;1.00
8953;DHT22;4511;50.890;8.054;2023-10-13T14:40:21;20.10;1.00
8953;DHT22;4511;50.890;8.054;2023-10-13T14:42:48;20.20;1.00
8953;DHT22;4511;50.890;8.054;2023-10-13T14:45:16;20.20;1.00
8953;DHT22;4511;50.890;8.054;2023-10-13T14:47:43;20.20;1.00
8953;DHT22;4511;50.890;8.054;2023-10-13T14:50:11;20.30;1.00
8953;DHT22;4511;50.890;8.054;2023-10-13T14:52:45;20.30;1.00
8953;DHT22;4511;50.890;8.054;2023-10-13T14:55:12;20.30;1.00
8953;DHT22;4511;50.890;8.054;2023-10-13T14:57:46;20.20;1.00
8953;DHT22;4511;50.890;8.054;2023-10-13T15:00:17;20.20;1.00
8953;DHT22;4511;50.890;8.054;2023-10-13T15:02:51;20.20;1.00
8953;DHT22;4511;50.890;8.054;2023-10-13T15:05:19;20.20;1.00
8953;DHT22;4511;50.890;8.054;2023-10-13T15:07:46;20.20;1.00
8953;DHT22;4511;50.890;8.054;2023-10-13T15:10:14;20.10;1.00
8953;DHT22;4511;50.890;8.054;2023-10-13T15:12:42;20.20;1.00
8953;DHT22;4511;50.890;8.054;2023-10-13T15:15:10;20.30;1.00
8953;DHT22;4511;50.890;8.054;2023-10-13T15:17:42;20.30;1.00
8953;DHT22;4511;50.890;8.054;2023-10-13T15:20:10;20.20;1.00
8953;DHT22;4511;50.890;8.054;2023-10-13T15:22:41;20.20;1.00
8953;DHT22;4511;50.890;8.054;2023-10-13T15:25:11;20.20;1.00
8953;DHT22;4511;50.890;8.054;2023-10-13T15:27:46;20.20;1.00
8953;DHT22;4511;50.890;8.054;2023-10-13T15:30:21;20.20;1.00
8953;DHT22;4511;50.890;8.054;2023-10-13T15:32:50;20.20;1.00
8953;DHT22;4511;50.890;8.054;2023-10-13T15:35:19;20.20;1.00
8953;DHT22;4511;50.890;8.054;2023-10-13T15:37:49;20.20;1.00
8953;DHT22;4511;50.890;8.054;2023-10-13T15:40:17;20.20;1.00
8953;DHT22;4511;50.890;8.054;2023-10-13T15:42:44;20.20;1.00
8953;DHT22;4511;50.890;8.054;2023-10-13T15:45:12;20.20;1.00
8953;DHT22;4511;50.890;8.054;2023-10-13T15:47:43;20.20;99.90
8953;DHT22;4511;50.890;8.054;2023-10-13T15:50:13;20.20;99.90
8953;DHT22;4511;50.890;8.054;2023-10-13T15:52:44;20.10;99.90
8953;DHT22;4511;50.890;8.054;2023-10-13T15:55:13;20.10;99.90
8953;DHT22;4511;50.890;8.054;2023-10-13T15:57:40;20.10;99.90
8953;DHT22;4511;50.890;8.054;2023-10-13T16:00:10;20.10;99.90
8953;DHT22;4511;50.890;8.054;2023-10-13T16:02:50;20.10;99.90
8953;DHT22;4511;50.890;8.054;2023-10-13T16:05:19;20.10;99.90
8953;DHT22;4511;50.890;8.054;2023-10-13T16:07:49;20.10;99.90
8953;DHT22;4511;50.890;8.054;2023-10-13T16:10:21;20.10;99.90
8953;DHT22;4511;50.890;8.054;2023-10-13T16:12:47;20.00;99.90
8953;DHT22;4511;50.890;8.054;2023-10-13T16:15:14;20.00;99.90
8953;DHT22;4511;50.890;8.054;2023-10-13T16:17:41;20.00;99.90
8953;DHT22;4511;50.890;8.054;2023-10-13T16:20:10;19.90;99.90
8953;DHT22;4511;50.890;8.054;2023-10-13T16:22:43;19.90;99.90
8953;DHT22;4511;50.890;8.054;2023-10-13T16:25:11;19.90;99.90
8953;DHT22;4511;50.890;8.054;2023-10-13T16:27:39;19.80;99.90
8953;DHT22;4511;50.890;8.054;2023-10-13T16:30:09;19.80;1.00
8953;DHT22;4511;50.890;8.054;2023-10-13T16:32:41;19.80;1.00
8953;DHT22;4511;50.890;8.054;2023-10-13T16:35:12;19.80;1.00
8953;DHT22;4511;50.890;8.054;2023-10-13T16:37:38;19.70;1.00
8953;DHT22;4511;50.890;8.054;2023-10-13T16:40:08;19.70;1.00
8953;DHT22;4511;50.890;8.054;2023-10-13T16:42:35;19.70;1.00
8953;DHT22;4511;50.890;8.054;2023-10-13T16:45:03;19.70;1.00